sensor_id;sensor_type;location;lat;lon;timestamp;P1;durP1;ratioP1;P2;durP2;ratioP2
54143;SDS011;40050;47.324;18.792;2024-01-07T00:00:47;27.15;;;16.98;;
54143;SDS011;40050;47.324;18.792;2024-01-07T00:02:43;28.00;;;16.82;;
54143;SDS011;40050;47.324;18.792;2024-01-07T00:04:45;27.38;;;16.53;;
54143;SDS011;40050;47.324;18.792;2024-01-07T00:06:46;26.81;;;16.04;;
54143;SDS011;40050;47.324;18.792;2024-01-07T00:08:47;27.38;;;15.94;;
54143;SDS011;40050;47.324;18.792;2024-01-07T00:10:48;29.75;;;16.79;;
54143;SDS011;40050;47.324;18.792;2024-01-07T00:12:49;26.53;;;16.22;;
54143;SDS011;40050;47.324;18.792;2024-01-07T00:14:50;31.08;;;16.89;;
54143;SDS011;40050;47.324;18.792;2024-01-07T00:16:50;30.13;;;17.28;;
54143;SDS011;40050;47.324;18.792;2024-01-07T00:18:51;30.23;;;16.88;;
54143;SDS011;40050;47.324;18.792;2024-01-07T00:20:53;28.89;;;17.07;;
54143;SDS011;40050;47.324;18.792;2024-01-07T00:22:53;29.30;;;16.22;;
54143;SDS011;40050;47.324;18.792;2024-01-07T00:24:54;30.89;;;17.35;;
54143;SDS011;40050;47.324;18.792;2024-01-07T00:26:55;29.62;;;17.06;;
54143;SDS011;40050;47.324;18.792;2024-01-07T00:28:56;28.64;;;17.26;;
54143;SDS011;40050;47.324;18.792;2024-01-07T00:30:57;27.58;;;16.23;;
54143;SDS011;40050;47.324;18.792;2024-01-07T00:32:58;29.92;;;17.36;;
54143;SDS011;40050;47.324;18.792;2024-01-07T00:34:58;30.69;;;17.01;;
54143;SDS011;40050;47.324;18.792;2024-01-07T00:36:59;28.66;;;16.72;;
54143;SDS011;40050;47.324;18.792;2024-01-07T00:39:00;31.74;;;17.95;;
54143;SDS011;40050;47.324;18.792;2024-01-07T00:41:01;33.82;;;17.78;;
54143;SDS011;40050;47.324;18.792;2024-01-07T00:43:02;32.44;;;18.14;;
54143;SDS011;40050;47.324;18.792;2024-01-07T00:45:03;31.22;;;17.19;;
54143;SDS011;40050;47.324;18.792;2024-01-07T00:47:04;33.17;;;17.64;;
54143;SDS011;40050;47.324;18.792;2024-01-07T00:49:05;31.38;;;17.47;;
54143;SDS011;40050;47.324;18.792;2024-01-07T00:51:05;31.01;;;16.89;;
54143;SDS011;40050;47.324;18.792;2024-01-07T00:53:06;31.67;;;17.17;;
54143;SDS011;40050;47.324;18.792;2024-01-07T00:55:07;32.54;;;17.16;;
54143;SDS011;40050;47.324;18.792;2024-01-07T00:57:09;29.06;;;16.69;;
54143;SDS011;40050;47.324;18.792;2024-01-07T00:59:09;28.01;;;16.89;;
54143;SDS011;40050;47.324;18.792;2024-01-07T01:01:10;29.11;;;16.99;;
54143;SDS011;40050;47.324;18.792;2024-01-07T01:03:11;29.55;;;16.31;;
54143;SDS011;40050;47.324;18.792;2024-01-07T01:05:12;29.40;;;17.19;;
54143;SDS011;40050;47.324;18.792;2024-01-07T01:07:13;32.47;;;17.40;;
54143;SDS011;40050;47.324;18.792;2024-01-07T01:09:13;30.79;;;16.71;;
54143;SDS011;40050;47.324;18.792;2024-01-07T01:11:14;33.22;;;17.47;;
54143;SDS011;40050;47.324;18.792;2024-01-07T01:13:15;33.51;;;18.02;;
54143;SDS011;40050;47.324;18.792;2024-01-07T01:15:16;33.94;;;18.19;;
54143;SDS011;40050;47.324;18.792;2024-01-07T01:17:17;30.56;;;17.45;;
54143;SDS011;40050;47.324;18.792;2024-01-07T01:19:18;33.93;;;17.43;;
54143;SDS011;40050;47.324;18.792;2024-01-07T01:21:19;33.11;;;17.27;;
54143;SDS011;40050;47.324;18.792;2024-01-07T01:23:20;30.77;;;16.87;;
54143;SDS011;40050;47.324;18.792;2024-01-07T01:25:21;31.55;;;17.16;;
54143;SDS011;40050;47.324;18.792;2024-01-07T01:27:21;33.18;;;17.34;;
54143;SDS011;40050;47.324;18.792;2024-01-07T01:29:23;27.25;;;16.58;;
54143;SDS011;40050;47.324;18.792;2024-01-07T01:31:23;29.11;;;16.68;;
54143;SDS011;40050;47.324;18.792;2024-01-07T01:33:24;29.00;;;16.89;;
54143;SDS011;40050;47.324;18.792;2024-01-07T01:35:25;28.02;;;16.54;;
54143;SDS011;40050;47.324;18.792;2024-01-07T01:37:27;30.32;;;17.10;;
54143;SDS011;40050;47.324;18.792;2024-01-07T01:39:28;27.16;;;16.13;;
54143;SDS011;40050;47.324;18.792;2024-01-07T01:41:28;28.72;;;15.58;;
54143;SDS011;40050;47.324;18.792;2024-01-07T01:43:28;28.04;;;16.17;;
54143;SDS011;40050;47.324;18.792;2024-01-07T01:45:29;29.35;;;16.28;;
54143;SDS011;40050;47.324;18.792;2024-01-07T01:47:30;26.79;;;15.51;;
54143;SDS011;40050;47.324;18.792;2024-01-07T01:49:32;27.14;;;16.15;;
54143;SDS011;40050;47.324;18.792;2024-01-07T01:51:33;26.83;;;15.50;;
54143;SDS011;40050;47.324;18.792;2024-01-07T01:53:34;27.91;;;16.06;;
54143;SDS011;40050;47.324;18.792;2024-01-07T01:55:35;28.07;;;15.68;;
54143;SDS011;40050;47.324;18.792;2024-01-07T01:57:36;25.86;;;15.20;;
54143;SDS011;40050;47.324;18.792;2024-01-07T01:59:37;26.38;;;15.21;;
54143;SDS011;40050;47.324;18.792;2024-01-07T02:01:38;24.78;;;14.83;;
54143;SDS011;40050;47.324;18.792;2024-01-07T02:03:39;22.20;;;14.17;;
54143;SDS011;40050;47.324;18.792;2024-01-07T02:05:40;24.63;;;14.07;;
54143;SDS011;40050;47.324;18.792;2024-01-07T02:07:41;24.32;;;14.18;;
54143;SDS011;40050;47.324;18.792;2024-01-07T02:09:42;24.75;;;14.09;;
54143;SDS011;40050;47.324;18.792;2024-01-07T02:12:02;22.81;;;13.99;;
54143;SDS011;40050;47.324;18.792;2024-01-07T02:13:50;19.99;;;13.24;;
54143;SDS011;40050;47.324;18.792;2024-01-07T02:15:51;22.88;;;13.42;;
54143;SDS011;40050;47.324;18.792;2024-01-07T02:17:52;20.42;;;13.22;;
54143;SDS011;40050;47.324;18.792;2024-01-07T02:19:53;21.34;;;13.60;;
54143;SDS011;40050;47.324;18.792;2024-01-07T02:21:54;21.00;;;12.93;;
54143;SDS011;40050;47.324;18.792;2024-01-07T02:23:55;19.74;;;12.65;;
54143;SDS011;40050;47.324;18.792;2024-01-07T02:25:56;19.63;;;12.38;;
54143;SDS011;40050;47.324;18.792;2024-01-07T02:27:57;21.68;;;12.94;;
54143;SDS011;40050;47.324;18.792;2024-01-07T02:29:57;19.62;;;12.19;;
54143;SDS011;40050;47.324;18.792;2024-01-07T02:31:58;16.98;;;11.61;;
54143;SDS011;40050;47.324;18.792;2024-01-07T02:33:59;17.52;;;11.72;;
54143;SDS011;40050;47.324;18.792;2024-01-07T02:36:00;16.06;;;10.67;;
54143;SDS011;40050;47.324;18.792;2024-01-07T02:38:01;16.24;;;10.86;;
54143;SDS011;40050;47.324;18.792;2024-01-07T02:40:02;15.06;;;9.91;;
54143;SDS011;40050;47.324;18.792;2024-01-07T02:42:03;14.31;;;9.72;;
54143;SDS011;40050;47.324;18.792;2024-01-07T02:44:04;15.47;;;9.91;;
54143;SDS011;40050;47.324;18.792;2024-01-07T02:46:05;14.76;;;9.61;;
54143;SDS011;40050;47.324;18.792;2024-01-07T02:48:05;14.57;;;9.79;;
54143;SDS011;40050;47.324;18.792;2024-01-07T02:50:06;13.59;;;9.24;;
54143;SDS011;40050;47.324;18.792;2024-01-07T02:52:07;13.32;;;8.66;;
54143;SDS011;40050;47.324;18.792;2024-01-07T02:54:08;12.66;;;9.14;;
54143;SDS011;40050;47.324;18.792;2024-01-07T02:56:09;11.88;;;8.09;;
54143;SDS011;40050;47.324;18.792;2024-01-07T02:58:10;10.70;;;7.80;;
54143;SDS011;40050;47.324;18.792;2024-01-07T03:00:11;10.11;;;7.42;;
54143;SDS011;40050;47.324;18.792;2024-01-07T03:02:12;11.70;;;7.90;;
54143;SDS011;40050;47.324;18.792;2024-01-07T03:04:13;9.06;;;6.68;;
54143;SDS011;40050;47.324;18.792;2024-01-07T03:06:13;9.22;;;6.40;;
54143;SDS011;40050;47.324;18.792;2024-01-07T03:08:14;9.14;;;6.68;;
54143;SDS011;40050;47.324;18.792;2024-01-07T03:10:15;9.96;;;6.21;;
54143;SDS011;40050;47.324;18.792;2024-01-07T03:12:16;8.55;;;6.30;;
54143;SDS011;40050;47.324;18.792;2024-01-07T03:14:17;7.90;;;6.21;;
54143;SDS011;40050;47.324;18.792;2024-01-07T03:16:24;7.07;;;5.84;;
54143;SDS011;40050;47.324;18.792;2024-01-07T03:18:19;7.67;;;6.03;;
54143;SDS011;40050;47.324;18.792;2024-01-07T03:20:20;7.92;;;5.37;;
54143;SDS011;40050;47.324;18.792;2024-01-07T03:22:21;7.66;;;5.46;;
54143;SDS011;40050;47.324;18.792;2024-01-07T03:24:22;7.24;;;5.18;;
54143;SDS011;40050;47.324;18.792;2024-01-07T03:26:23;8.00;;;5.65;;
54143;SDS011;40050;47.324;18.792;2024-01-07T03:28:24;6.76;;;5.28;;
54143;SDS011;40050;47.324;18.792;2024-01-07T03:30:25;7.51;;;5.28;;
54143;SDS011;40050;47.324;18.792;2024-01-07T03:32:25;6.08;;;4.71;;
54143;SDS011;40050;47.324;18.792;2024-01-07T03:34:26;6.61;;;4.81;;
54143;SDS011;40050;47.324;18.792;2024-01-07T03:36:27;5.68;;;4.43;;
54143;SDS011;40050;47.324;18.792;2024-01-07T03:38:28;6.41;;;4.62;;
54143;SDS011;40050;47.324;18.792;2024-01-07T03:40:29;5.58;;;4.43;;
54143;SDS011;40050;47.324;18.792;2024-01-07T03:42:30;6.33;;;4.61;;
54143;SDS011;40050;47.324;18.792;2024-01-07T03:44:31;6.74;;;4.80;;
54143;SDS011;40050;47.324;18.792;2024-01-07T03:46:32;7.66;;;5.65;;
54143;SDS011;40050;47.324;18.792;2024-01-07T03:48:33;8.99;;;4.99;;
54143;SDS011;40050;47.324;18.792;2024-01-07T03:50:34;7.83;;;5.37;;
54143;SDS011;40050;47.324;18.792;2024-01-07T03:52:36;7.50;;;5.56;;
54143;SDS011;40050;47.324;18.792;2024-01-07T03:54:37;7.33;;;5.37;;
54143;SDS011;40050;47.324;18.792;2024-01-07T03:56:38;7.51;;;5.56;;
54143;SDS011;40050;47.324;18.792;2024-01-07T03:58:39;8.27;;;6.04;;
54143;SDS011;40050;47.324;18.792;2024-01-07T04:00:40;10.55;;;6.89;;
54143;SDS011;40050;47.324;18.792;2024-01-07T04:02:41;9.98;;;7.28;;
54143;SDS011;40050;47.324;18.792;2024-01-07T04:04:42;10.16;;;7.00;;
54143;SDS011;40050;47.324;18.792;2024-01-07T04:06:43;8.38;;;6.52;;
54143;SDS011;40050;47.324;18.792;2024-01-07T04:08:44;8.47;;;6.43;;
54143;SDS011;40050;47.324;18.792;2024-01-07T04:10:46;9.57;;;6.71;;
54143;SDS011;40050;47.324;18.792;2024-01-07T04:12:47;9.31;;;6.81;;
54143;SDS011;40050;47.324;18.792;2024-01-07T04:14:47;8.80;;;6.43;;
54143;SDS011;40050;47.324;18.792;2024-01-07T04:16:49;8.13;;;5.95;;
54143;SDS011;40050;47.324;18.792;2024-01-07T04:18:50;7.21;;;5.10;;
54143;SDS011;40050;47.324;18.792;2024-01-07T04:20:51;7.88;;;5.95;;
54143;SDS011;40050;47.324;18.792;2024-01-07T04:22:52;6.70;;;5.48;;
54143;SDS011;40050;47.324;18.792;2024-01-07T04:24:53;5.96;;;4.73;;
54143;SDS011;40050;47.324;18.792;2024-01-07T04:26:54;6.21;;;4.63;;
54143;SDS011;40050;47.324;18.792;2024-01-07T04:28:55;5.70;;;4.44;;
54143;SDS011;40050;47.324;18.792;2024-01-07T04:30:56;6.38;;;4.35;;
54143;SDS011;40050;47.324;18.792;2024-01-07T04:32:56;5.62;;;4.25;;
54143;SDS011;40050;47.324;18.792;2024-01-07T04:34:57;5.03;;;4.53;;
54143;SDS011;40050;47.324;18.792;2024-01-07T04:36:58;5.03;;;4.16;;
54143;SDS011;40050;47.324;18.792;2024-01-07T04:38:59;6.37;;;4.54;;
54143;SDS011;40050;47.324;18.792;2024-01-07T04:41:00;5.37;;;4.06;;
54143;SDS011;40050;47.324;18.792;2024-01-07T04:43:01;6.13;;;4.07;;
54143;SDS011;40050;47.324;18.792;2024-01-07T04:45:02;5.28;;;3.87;;
54143;SDS011;40050;47.324;18.792;2024-01-07T04:47:22;5.86;;;4.25;;
54143;SDS011;40050;47.324;18.792;2024-01-07T04:49:06;4.28;;;3.69;;
54143;SDS011;40050;47.324;18.792;2024-01-07T04:51:08;5.44;;;3.97;;
54143;SDS011;40050;47.324;18.792;2024-01-07T04:53:08;4.51;;;3.87;;
54143;SDS011;40050;47.324;18.792;2024-01-07T04:55:09;4.51;;;3.96;;
54143;SDS011;40050;47.324;18.792;2024-01-07T04:57:10;5.26;;;3.86;;
54143;SDS011;40050;47.324;18.792;2024-01-07T04:59:11;4.67;;;3.68;;
54143;SDS011;40050;47.324;18.792;2024-01-07T05:01:12;5.84;;;3.86;;
54143;SDS011;40050;47.324;18.792;2024-01-07T05:03:13;6.01;;;3.86;;
54143;SDS011;40050;47.324;18.792;2024-01-07T05:05:14;4.26;;;3.68;;
54143;SDS011;40050;47.324;18.792;2024-01-07T05:07:15;6.43;;;3.96;;
54143;SDS011;40050;47.324;18.792;2024-01-07T05:09:17;5.09;;;3.87;;
54143;SDS011;40050;47.324;18.792;2024-01-07T05:11:17;4.92;;;4.05;;
54143;SDS011;40050;47.324;18.792;2024-01-07T05:13:18;6.09;;;4.53;;
54143;SDS011;40050;47.324;18.792;2024-01-07T05:15:19;5.51;;;4.43;;
54143;SDS011;40050;47.324;18.792;2024-01-07T05:17:20;5.01;;;4.15;;
54143;SDS011;40050;47.324;18.792;2024-01-07T05:19:21;4.84;;;4.05;;
54143;SDS011;40050;47.324;18.792;2024-01-07T05:21:22;6.17;;;4.34;;
54143;SDS011;40050;47.324;18.792;2024-01-07T05:23:23;5.50;;;4.15;;
54143;SDS011;40050;47.324;18.792;2024-01-07T05:25:24;5.92;;;4.52;;
54143;SDS011;40050;47.324;18.792;2024-01-07T05:27:25;6.25;;;4.33;;
54143;SDS011;40050;47.324;18.792;2024-01-07T05:29:26;5.51;;;4.34;;
54143;SDS011;40050;47.324;18.792;2024-01-07T05:31:26;5.85;;;4.53;;
54143;SDS011;40050;47.324;18.792;2024-01-07T05:33:27;5.51;;;4.53;;
54143;SDS011;40050;47.324;18.792;2024-01-07T05:35:28;5.77;;;4.53;;
54143;SDS011;40050;47.324;18.792;2024-01-07T05:37:29;8.29;;;4.82;;
54143;SDS011;40050;47.324;18.792;2024-01-07T05:39:30;6.69;;;4.72;;
54143;SDS011;40050;47.324;18.792;2024-01-07T05:41:31;7.19;;;5.28;;
54143;SDS011;40050;47.324;18.792;2024-01-07T05:43:32;7.20;;;5.10;;
54143;SDS011;40050;47.324;18.792;2024-01-07T05:45:33;7.45;;;5.48;;
54143;SDS011;40050;47.324;18.792;2024-01-07T05:47:34;9.04;;;5.57;;
54143;SDS011;40050;47.324;18.792;2024-01-07T05:49:35;8.05;;;5.86;;
54143;SDS011;40050;47.324;18.792;2024-01-07T05:51:41;8.87;;;5.57;;
54143;SDS011;40050;47.324;18.792;2024-01-07T05:53:36;8.04;;;5.57;;
54143;SDS011;40050;47.324;18.792;2024-01-07T05:55:38;8.62;;;5.57;;
54143;SDS011;40050;47.324;18.792;2024-01-07T05:57:38;9.88;;;6.04;;
54143;SDS011;40050;47.324;18.792;2024-01-07T05:59:39;8.88;;;5.67;;
54143;SDS011;40050;47.324;18.792;2024-01-07T06:01:40;9.13;;;5.95;;
54143;SDS011;40050;47.324;18.792;2024-01-07T06:03:41;9.55;;;6.33;;
54143;SDS011;40050;47.324;18.792;2024-01-07T06:05:42;9.39;;;6.71;;
54143;SDS011;40050;47.324;18.792;2024-01-07T06:07:43;10.56;;;6.80;;
54143;SDS011;40050;47.324;18.792;2024-01-07T06:09:44;12.08;;;7.94;;
54143;SDS011;40050;47.324;18.792;2024-01-07T06:11:45;11.75;;;7.94;;
54143;SDS011;40050;47.324;18.792;2024-01-07T06:13:46;12.08;;;7.66;;
54143;SDS011;40050;47.324;18.792;2024-01-07T06:15:47;13.84;;;8.89;;
54143;SDS011;40050;47.324;18.792;2024-01-07T06:17:47;14.27;;;9.08;;
54143;SDS011;40050;47.324;18.792;2024-01-07T06:19:48;14.10;;;8.89;;
54143;SDS011;40050;47.324;18.792;2024-01-07T06:21:49;12.68;;;8.99;;
54143;SDS011;40050;47.324;18.792;2024-01-07T06:23:50;13.01;;;9.08;;
54143;SDS011;40050;47.324;18.792;2024-01-07T06:25:51;13.02;;;8.80;;
54143;SDS011;40050;47.324;18.792;2024-01-07T06:27:52;12.59;;;8.60;;
54143;SDS011;40050;47.324;18.792;2024-01-07T06:29:53;12.65;;;8.50;;
54143;SDS011;40050;47.324;18.792;2024-01-07T06:31:54;12.06;;;8.31;;
54143;SDS011;40050;47.324;18.792;2024-01-07T06:33:55;12.82;;;8.60;;
54143;SDS011;40050;47.324;18.792;2024-01-07T06:35:56;12.65;;;8.31;;
54143;SDS011;40050;47.324;18.792;2024-01-07T06:37:56;13.15;;;8.03;;
54143;SDS011;40050;47.324;18.792;2024-01-07T06:39:57;13.31;;;8.50;;
54143;SDS011;40050;47.324;18.792;2024-01-07T06:41:58;12.14;;;8.03;;
54143;SDS011;40050;47.324;18.792;2024-01-07T06:43:59;12.45;;;8.11;;
54143;SDS011;40050;47.324;18.792;2024-01-07T06:46:00;11.89;;;7.65;;
54143;SDS011;40050;47.324;18.792;2024-01-07T06:48:01;11.10;;;7.36;;
54143;SDS011;40050;47.324;18.792;2024-01-07T06:50:02;10.35;;;6.79;;
54143;SDS011;40050;47.324;18.792;2024-01-07T06:52:03;10.69;;;6.89;;
54143;SDS011;40050;47.324;18.792;2024-01-07T06:54:04;9.44;;;6.60;;
54143;SDS011;40050;47.324;18.792;2024-01-07T06:56:04;9.83;;;6.12;;
54143;SDS011;40050;47.324;18.792;2024-01-07T06:58:05;9.77;;;6.51;;
54143;SDS011;40050;47.324;18.792;2024-01-07T07:00:06;9.34;;;6.22;;
54143;SDS011;40050;47.324;18.792;2024-01-07T07:02:07;9.84;;;6.13;;
54143;SDS011;40050;47.324;18.792;2024-01-07T07:04:08;8.43;;;5.56;;
54143;SDS011;40050;47.324;18.792;2024-01-07T07:06:09;7.84;;;5.94;;
54143;SDS011;40050;47.324;18.792;2024-01-07T07:08:10;7.68;;;5.37;;
54143;SDS011;40050;47.324;18.792;2024-01-07T07:10:11;8.01;;;5.75;;
54143;SDS011;40050;47.324;18.792;2024-01-07T07:12:12;9.10;;;5.85;;
54143;SDS011;40050;47.324;18.792;2024-01-07T07:14:13;7.68;;;5.66;;
54143;SDS011;40050;47.324;18.792;2024-01-07T07:16:13;7.85;;;5.75;;
54143;SDS011;40050;47.324;18.792;2024-01-07T07:18:14;8.59;;;6.03;;
54143;SDS011;40050;47.324;18.792;2024-01-07T07:20:15;7.34;;;5.47;;
54143;SDS011;40050;47.324;18.792;2024-01-07T07:22:16;6.92;;;5.09;;
54143;SDS011;40050;47.324;18.792;2024-01-07T07:24:17;6.92;;;5.47;;
54143;SDS011;40050;47.324;18.792;2024-01-07T07:26:18;7.43;;;5.09;;
54143;SDS011;40050;47.324;18.792;2024-01-07T07:28:19;7.77;;;5.28;;
54143;SDS011;40050;47.324;18.792;2024-01-07T07:30:20;6.67;;;5.37;;
54143;SDS011;40050;47.324;18.792;2024-01-07T07:32:21;7.50;;;5.47;;
54143;SDS011;40050;47.324;18.792;2024-01-07T07:34:22;7.68;;;5.38;;
54143;SDS011;40050;47.324;18.792;2024-01-07T07:36:23;7.10;;;5.57;;
54143;SDS011;40050;47.324;18.792;2024-01-07T07:38:24;8.03;;;5.76;;
54143;SDS011;40050;47.324;18.792;2024-01-07T07:40:25;10.89;;;6.42;;
54143;SDS011;40050;47.324;18.792;2024-01-07T07:42:26;9.79;;;6.80;;
54143;SDS011;40050;47.324;18.792;2024-01-07T07:44:27;9.72;;;6.61;;
54143;SDS011;40050;47.324;18.792;2024-01-07T07:46:28;10.89;;;6.90;;
54143;SDS011;40050;47.324;18.792;2024-01-07T07:48:28;10.66;;;7.47;;
54143;SDS011;40050;47.324;18.792;2024-01-07T07:50:29;11.07;;;7.09;;
54143;SDS011;40050;47.324;18.792;2024-01-07T07:52:30;9.54;;;6.99;;
54143;SDS011;40050;47.324;18.792;2024-01-07T07:54:31;9.79;;;6.80;;
54143;SDS011;40050;47.324;18.792;2024-01-07T07:56:32;10.13;;;6.42;;
54143;SDS011;40050;47.324;18.792;2024-01-07T07:58:33;8.29;;;6.33;;
54143;SDS011;40050;47.324;18.792;2024-01-07T08:00:34;9.29;;;6.52;;
54143;SDS011;40050;47.324;18.792;2024-01-07T08:02:35;10.64;;;6.24;;
54143;SDS011;40050;47.324;18.792;2024-01-07T08:04:36;8.96;;;6.33;;
54143;SDS011;40050;47.324;18.792;2024-01-07T08:06:40;8.02;;;6.23;;
54143;SDS011;40050;47.324;18.792;2024-01-07T08:08:38;11.95;;;6.70;;
54143;SDS011;40050;47.324;18.792;2024-01-07T08:10:39;9.58;;;6.22;;
54143;SDS011;40050;47.324;18.792;2024-01-07T08:12:40;8.44;;;5.95;;
54143;SDS011;40050;47.324;18.792;2024-01-07T08:14:41;6.70;;;5.29;;
54143;SDS011;40050;47.324;18.792;2024-01-07T08:16:42;6.46;;;4.92;;
54143;SDS011;40050;47.324;18.792;2024-01-07T08:18:43;5.88;;;4.83;;
54143;SDS011;40050;47.324;18.792;2024-01-07T08:20:44;6.22;;;4.73;;
54143;SDS011;40050;47.324;18.792;2024-01-07T08:22:45;5.39;;;4.45;;
54143;SDS011;40050;47.324;18.792;2024-01-07T08:24:45;4.98;;;4.27;;
54143;SDS011;40050;47.324;18.792;2024-01-07T08:26:52;5.99;;;4.46;;
54143;SDS011;40050;47.324;18.792;2024-01-07T08:28:53;5.74;;;4.08;;
54143;SDS011;40050;47.324;18.792;2024-01-07T08:30:54;5.92;;;4.46;;
54143;SDS011;40050;47.324;18.792;2024-01-07T08:32:55;5.75;;;4.55;;
54143;SDS011;40050;47.324;18.792;2024-01-07T08:34:56;5.16;;;4.27;;
54143;SDS011;40050;47.324;18.792;2024-01-07T08:36:56;5.19;;;3.81;;
54143;SDS011;40050;47.324;18.792;2024-01-07T08:38:57;5.27;;;3.80;;
54143;SDS011;40050;47.324;18.792;2024-01-07T08:40:58;4.84;;;3.81;;
54143;SDS011;40050;47.324;18.792;2024-01-07T08:42:59;4.93;;;4.00;;
54143;SDS011;40050;47.324;18.792;2024-01-07T08:45:00;5.44;;;3.90;;
54143;SDS011;40050;47.324;18.792;2024-01-07T08:47:01;4.93;;;4.09;;
54143;SDS011;40050;47.324;18.792;2024-01-07T08:49:02;4.67;;;3.80;;
54143;SDS011;40050;47.324;18.792;2024-01-07T08:51:03;5.18;;;3.80;;
54143;SDS011;40050;47.324;18.792;2024-01-07T08:53:04;4.74;;;3.89;;
54143;SDS011;40050;47.324;18.792;2024-01-07T08:55:05;5.09;;;3.42;;
54143;SDS011;40050;47.324;18.792;2024-01-07T08:57:05;3.91;;;2.95;;
54143;SDS011;40050;47.324;18.792;2024-01-07T08:59:06;5.45;;;3.33;;
54143;SDS011;40050;47.324;18.792;2024-01-07T09:01:07;3.92;;;2.86;;
54143;SDS011;40050;47.324;18.792;2024-01-07T09:03:08;5.79;;;2.76;;
54143;SDS011;40050;47.324;18.792;2024-01-07T09:05:09;3.67;;;2.76;;
54143;SDS011;40050;47.324;18.792;2024-01-07T09:07:10;4.11;;;3.05;;
54143;SDS011;40050;47.324;18.792;2024-01-07T09:09:11;3.94;;;2.77;;
54143;SDS011;40050;47.324;18.792;2024-01-07T09:11:12;3.77;;;2.67;;
54143;SDS011;40050;47.324;18.792;2024-01-07T09:13:13;3.34;;;2.58;;
54143;SDS011;40050;47.324;18.792;2024-01-07T09:15:13;3.26;;;2.68;;
54143;SDS011;40050;47.324;18.792;2024-01-07T09:17:14;4.12;;;2.77;;
54143;SDS011;40050;47.324;18.792;2024-01-07T09:19:15;4.29;;;2.87;;
54143;SDS011;40050;47.324;18.792;2024-01-07T09:21:16;3.27;;;2.58;;
54143;SDS011;40050;47.324;18.792;2024-01-07T09:23:17;3.61;;;2.97;;
54143;SDS011;40050;47.324;18.792;2024-01-07T09:25:18;3.61;;;2.96;;
54143;SDS011;40050;47.324;18.792;2024-01-07T09:27:19;4.30;;;2.87;;
54143;SDS011;40050;47.324;18.792;2024-01-07T09:29:20;4.90;;;2.96;;
54143;SDS011;40050;47.324;18.792;2024-01-07T09:31:21;3.95;;;2.87;;
54143;SDS011;40050;47.324;18.792;2024-01-07T09:33:22;4.81;;;3.06;;
54143;SDS011;40050;47.324;18.792;2024-01-07T09:35:22;4.46;;;3.15;;
54143;SDS011;40050;47.324;18.792;2024-01-07T09:37:23;4.82;;;3.25;;
54143;SDS011;40050;47.324;18.792;2024-01-07T09:39:24;4.48;;;3.45;;
54143;SDS011;40050;47.324;18.792;2024-01-07T09:41:25;4.83;;;3.26;;
54143;SDS011;40050;47.324;18.792;2024-01-07T09:43:26;4.25;;;3.26;;
54143;SDS011;40050;47.324;18.792;2024-01-07T09:45:28;5.53;;;3.64;;
54143;SDS011;40050;47.324;18.792;2024-01-07T09:47:29;5.01;;;3.45;;
54143;SDS011;40050;47.324;18.792;2024-01-07T09:49:30;5.02;;;3.45;;
54143;SDS011;40050;47.324;18.792;2024-01-07T09:51:32;4.33;;;3.17;;
54143;SDS011;40050;47.324;18.792;2024-01-07T09:53:33;4.68;;;3.46;;
54143;SDS011;40050;47.324;18.792;2024-01-07T09:55:41;4.76;;;3.45;;
54143;SDS011;40050;47.324;18.792;2024-01-07T09:57:37;4.24;;;3.36;;
54143;SDS011;40050;47.324;18.792;2024-01-07T09:59:37;4.85;;;3.74;;
54143;SDS011;40050;47.324;18.792;2024-01-07T10:01:38;5.63;;;3.55;;
54143;SDS011;40050;47.324;18.792;2024-01-07T10:03:39;5.19;;;3.74;;
54143;SDS011;40050;47.324;18.792;2024-01-07T10:05:40;5.45;;;3.93;;
54143;SDS011;40050;47.324;18.792;2024-01-07T10:07:41;5.28;;;3.55;;
54143;SDS011;40050;47.324;18.792;2024-01-07T10:09:45;4.93;;;3.55;;
54143;SDS011;40050;47.324;18.792;2024-01-07T10:11:46;3.82;;;3.17;;
54143;SDS011;40050;47.324;18.792;2024-01-07T10:13:46;4.51;;;3.55;;
54143;SDS011;40050;47.324;18.792;2024-01-07T10:15:47;6.33;;;3.46;;
54143;SDS011;40050;47.324;18.792;2024-01-07T10:17:48;4.95;;;3.36;;
54143;SDS011;40050;47.324;18.792;2024-01-07T10:19:52;5.20;;;3.74;;
54143;SDS011;40050;47.324;18.792;2024-01-07T10:22:00;5.02;;;3.45;;
54143;SDS011;40050;47.324;18.792;2024-01-07T10:24:06;7.42;;;3.83;;
54143;SDS011;40050;47.324;18.792;2024-01-07T10:25:55;4.57;;;3.83;;
54143;SDS011;40050;47.324;18.792;2024-01-07T10:27:58;5.87;;;3.93;;
54143;SDS011;40050;47.324;18.792;2024-01-07T10:30:01;5.01;;;3.93;;
54143;SDS011;40050;47.324;18.792;2024-01-07T10:31:59;6.06;;;4.03;;
54143;SDS011;40050;47.324;18.792;2024-01-07T10:34:06;7.01;;;4.61;;
54143;SDS011;40050;47.324;18.792;2024-01-07T10:36:05;6.67;;;4.70;;
54143;SDS011;40050;47.324;18.792;2024-01-07T10:38:06;5.27;;;4.31;;
54143;SDS011;40050;47.324;18.792;2024-01-07T10:40:07;7.36;;;4.41;;
54143;SDS011;40050;47.324;18.792;2024-01-07T10:42:08;6.31;;;4.60;;
54143;SDS011;40050;47.324;18.792;2024-01-07T10:44:10;7.18;;;4.79;;
54143;SDS011;40050;47.324;18.792;2024-01-07T10:46:11;7.07;;;4.89;;
54143;SDS011;40050;47.324;18.792;2024-01-07T10:48:12;6.65;;;4.70;;
54143;SDS011;40050;47.324;18.792;2024-01-07T10:50:15;7.35;;;4.99;;
54143;SDS011;40050;47.324;18.792;2024-01-07T10:52:17;7.26;;;5.08;;
54143;SDS011;40050;47.324;18.792;2024-01-07T10:54:23;6.38;;;4.98;;
54143;SDS011;40050;47.324;18.792;2024-01-07T10:56:32;6.46;;;4.79;;
54143;SDS011;40050;47.324;18.792;2024-01-07T10:58:35;7.07;;;4.98;;
54143;SDS011;40050;47.324;18.792;2024-01-07T11:00:32;6.64;;;5.17;;
54143;SDS011;40050;47.324;18.792;2024-01-07T11:02:38;6.65;;;4.79;;
54143;SDS011;40050;47.324;18.792;2024-01-07T11:05:09;8.59;;;4.85;;
54143;SDS011;40050;47.324;18.792;2024-01-07T11:07:14;7.40;;;4.38;;
54143;SDS011;40050;47.324;18.792;2024-01-07T11:11:25;5.96;;;4.31;;
54143;SDS011;40050;47.324;18.792;2024-01-07T11:13:38;5.61;;;4.41;;
54143;SDS011;40050;47.324;18.792;2024-01-07T11:17:40;5.25;;;4.02;;
54143;SDS011;40050;47.324;18.792;2024-01-07T11:19:28;6.29;;;4.31;;
54143;SDS011;40050;47.324;18.792;2024-01-07T11:21:30;6.38;;;4.31;;
54143;SDS011;40050;47.324;18.792;2024-01-07T11:23:43;6.63;;;4.60;;
54143;SDS011;40050;47.324;18.792;2024-01-07T11:26:00;5.60;;;4.12;;
54143;SDS011;40050;47.324;18.792;2024-01-07T11:28:01;7.13;;;4.59;;
54143;SDS011;40050;47.324;18.792;2024-01-07T11:30:04;5.86;;;4.21;;
54143;SDS011;40050;47.324;18.792;2024-01-07T11:32:22;5.96;;;4.03;;
54143;SDS011;40050;47.324;18.792;2024-01-07T11:36:38;6.39;;;4.22;;
54143;SDS011;40050;47.324;18.792;2024-01-07T11:38:45;5.96;;;4.60;;
54143;SDS011;40050;47.324;18.792;2024-01-07T11:40:41;5.96;;;4.51;;
54143;SDS011;40050;47.324;18.792;2024-01-07T11:42:42;6.93;;;4.70;;
54143;SDS011;40050;47.324;18.792;2024-01-07T11:44:44;6.31;;;4.41;;
54143;SDS011;40050;47.324;18.792;2024-01-07T11:46:55;5.54;;;3.84;;
54143;SDS011;40050;47.324;18.792;2024-01-07T11:49:26;6.59;;;4.51;;
54143;SDS011;40050;47.324;18.792;2024-01-07T12:57:56;9.82;;;6.61;;
54143;SDS011;40050;47.324;18.792;2024-01-07T12:59:31;9.32;;;6.71;;
54143;SDS011;40050;47.324;18.792;2024-01-07T13:24:58;12.81;;;8.58;;
54143;SDS011;40050;47.324;18.792;2024-01-07T13:27:11;12.71;;;8.77;;
54143;SDS011;40050;47.324;18.792;2024-01-07T13:28:59;13.98;;;9.15;;